Time;durP1;ratioP1;P1;durP2;ratioP2;P2;SDS_P1;SDS_P2;PMS_P1;PMS_P2;Temp;Humidity;BMP_temperature;BMP_pressure;BME280_temperature;BME280_humidity;BME280_pressure;Samples;Min_cycle;Max_cycle;Signal;HPM_P1;HPM_P2
2022/03/22 00:01:28;;;;;;;20.30;11.50;;;7.90;52.10;;;;;;5011759;28;20236;-78
2022/03/22 00:03:54;;;;;;;17.97;11.63;;;7.80;52.20;;;;;;5010366;28;20177;-78
2022/03/22 00:06:20;;;;;;;14.57;11.30;;;7.80;52.60;;;;;;5002214;28;20184;-77
2022/03/22 00:08:47;;;;;;;15.67;11.30;;;7.90;53.10;;;;;;5011447;28;20440;-79
2022/03/22 00:11:14;;;;;;;19.50;10.87;;;7.80;53.30;;;;;;5005689;28;20215;-78
2022/03/22 00:13:43;;;;;;;13.60;10.80;;;7.90;54.00;;;;;;5001638;28;20273;-79
2022/03/22 00:16:09;;;;;;;14.73;11.00;;;8.00;54.00;;;;;;5017472;28;20180;-79
2022/03/22 00:18:38;;;;;;;16.97;11.70;;;7.90;52.20;;;;;;5013259;28;20189;-79
2022/03/22 00:21:06;;;;;;;15.83;10.70;;;7.90;52.10;;;;;;5014333;28;20223;-79
2022/03/22 00:23:33;;;;;;;14.70;11.17;;;7.90;52.90;;;;;;5011823;28;20177;-77
2022/03/22 00:25:58;;;;;;;13.37;10.93;;;7.90;55.30;;;;;;5012110;28;20178;-78
2022/03/22 00:28:24;;;;;;;15.20;10.97;;;7.90;52.10;;;;;;5023674;28;20174;-79
2022/03/22 00:30:51;;;;;;;18.80;11.47;;;7.80;54.40;;;;;;5009992;28;20312;-79
2022/03/22 00:33:17;;;;;;;17.63;11.40;;;7.80;52.40;;;;;;5004049;28;20181;-79
2022/03/22 00:35:43;;;;;;;16.97;11.10;;;7.70;52.50;;;;;;4998709;28;20257;-79
2022/03/22 00:38:16;;;;;;;13.23;10.87;;;7.70;52.40;;;;;;5004236;28;20189;-80
2022/03/22 00:40:42;;;;;;;16.13;11.30;;;7.70;52.60;;;;;;5004950;28;20672;-79
2022/03/22 00:43:09;;;;;;;19.50;11.93;;;7.60;52.80;;;;;;5004779;28;20181;-77
2022/03/22 00:45:37;;;;;;;15.57;11.20;;;7.60;55.40;;;;;;5007524;28;20183;-79
2022/03/22 00:48:04;;;;;;;15.77;11.70;;;7.60;53.20;;;;;;5004562;28;20215;-80
2022/03/22 00:50:36;;;;;;;17.53;11.83;;;7.50;53.50;;;;;;4998289;28;20202;-79
2022/03/22 00:53:04;;;;;;;16.63;11.10;;;7.50;53.70;;;;;;5004759;28;20169;-79
2022/03/22 00:55:31;;;;;;;13.43;10.87;;;7.60;53.60;;;;;;5006029;28;20204;-80
2022/03/22 00:57:58;;;;;;;15.37;11.17;;;7.60;53.80;;;;;;4996809;28;20178;-80
2022/03/22 01:00:26;;;;;;;15.90;10.87;;;7.50;53.70;;;;;;4994653;28;20205;-79
2022/03/22 01:02:54;;;;;;;15.37;11.43;;;7.60;55.50;;;;;;5003381;28;20177;-79
2022/03/22 01:05:21;;;;;;;14.47;11.20;;;7.50;54.50;;;;;;5004572;28;20178;-80
2022/03/22 01:07:49;;;;;;;18.70;11.97;;;7.60;56.00;;;;;;4991412;28;20181;-79
2022/03/22 01:10:16;;;;;;;21.20;12.20;;;7.60;54.00;;;;;;5003698;28;20213;-78
2022/03/22 01:12:44;;;;;;;18.37;12.03;;;7.60;55.60;;;;;;5002038;28;20174;-79
2022/03/22 01:15:15;;;;;;;18.47;11.50;;;7.60;54.30;;;;;;5002333;28;20328;-82
2022/03/22 01:17:47;;;;;;;15.60;11.10;;;7.60;54.90;;;;;;5002695;28;20195;-79
2022/03/22 01:20:13;;;;;;;15.73;11.43;;;7.60;57.80;;;;;;5001404;28;20201;-80
2022/03/22 01:22:45;;;;;;;19.30;11.40;;;7.70;55.30;;;;;;4996587;28;20214;-83
2022/03/22 01:25:19;;;;;;;14.63;11.70;;;7.70;53.80;;;;;;5014204;28;20180;-82
2022/03/22 01:27:47;;;;;;;22.43;14.30;;;7.60;53.40;;;;;;5013946;28;20185;-82
2022/03/22 01:30:15;;;;;;;17.00;11.87;;;7.60;56.20;;;;;;4996472;28;20200;-81
2022/03/22 01:32:42;;;;;;;14.93;10.90;;;7.70;56.10;;;;;;5001453;28;20181;-81
2022/03/22 01:35:11;;;;;;;17.17;11.67;;;7.80;57.40;;;;;;5005623;28;20178;-82
2022/03/22 01:37:38;;;;;;;15.60;11.17;;;7.80;54.40;;;;;;4997726;28;20177;-84
2022/03/22 01:40:05;;;;;;;14.43;11.37;;;7.60;53.80;;;;;;5005052;28;20201;-83
2022/03/22 01:42:32;;;;;;;16.00;11.63;;;7.70;56.80;;;;;;4998982;28;20194;-80
2022/03/22 01:44:58;;;;;;;14.57;11.53;;;7.70;55.50;;;;;;5011490;28;20671;-80
2022/03/22 01:47:25;;;;;;;17.10;11.83;;;7.60;55.50;;;;;;5006992;28;20176;-80
2022/03/22 01:49:52;;;;;;;14.93;11.10;;;7.60;55.70;;;;;;5007434;28;20220;-81
2022/03/22 01:52:24;;;;;;;15.87;11.20;;;7.80;57.70;;;;;;5007766;28;20210;-80
2022/03/22 01:54:52;;;;;;;13.20;10.90;;;7.90;56.70;;;;;;5011937;28;20197;-81
2022/03/22 01:57:19;;;;;;;13.80;11.43;;;7.70;55.80;;;;;;5020307;28;20181;-81
2022/03/22 01:59:45;;;;;;;14.67;12.07;;;7.70;56.20;;;;;;5019767;28;20225;-80
2022/03/22 02:07:42;;;;;;;16.67;11.13;;;7.50;55.80;;;;;;5022900;28;20170;-80
2022/03/22 02:10:08;;;;;;;20.63;11.17;;;7.40;58.80;;;;;;5022279;28;20190;-79
2022/03/22 02:12:35;;;;;;;16.67;11.20;;;7.50;58.60;;;;;;5019890;28;20162;-80
2022/03/22 02:15:01;;;;;;;15.47;11.33;;;7.50;57.20;;;;;;5022244;28;20228;-79
2022/03/22 02:17:27;;;;;;;17.67;11.33;;;7.40;56.70;;;;;;5020106;28;20165;-79
2022/03/22 02:19:55;;;;;;;22.07;11.67;;;7.40;58.40;;;;;;5020889;28;20198;-81
2022/03/22 02:22:31;;;;;;;14.67;11.40;;;7.50;57.40;;;;;;5022548;28;20213;-80
2022/03/22 02:24:57;;;;;;;18.30;10.97;;;7.40;57.00;;;;;;5021608;28;20188;-80
2022/03/22 02:27:29;;;;;;;15.10;11.60;;;7.40;57.20;;;;;;5022741;28;20188;-79
2022/03/22 02:29:56;;;;;;;18.33;11.30;;;7.40;57.00;;;;;;5022372;28;20201;-81
2022/03/22 02:32:25;;;;;;;18.57;11.30;;;7.30;58.40;;;;;;5022882;28;20174;-80
2022/03/22 02:34:51;;;;;;;14.23;10.43;;;7.30;58.70;;;;;;5023220;28;20165;-80
2022/03/22 02:37:17;;;;;;;15.07;11.23;;;7.40;58.70;;;;;;5022381;28;20186;-79
2022/03/22 02:39:42;;;;;;;14.73;11.77;;;7.40;58.40;;;;;;5019562;28;20215;-79
2022/03/22 02:42:08;;;;;;;15.03;11.07;;;7.40;58.60;;;;;;5022165;28;20197;-81
2022/03/22 02:44:34;;;;;;;14.70;11.23;;;7.20;57.80;;;;;;5012852;28;20189;-81
2022/03/22 02:47:01;;;;;;;14.47;10.90;;;7.30;59.90;;;;;;5020964;28;20176;-80
2022/03/22 02:49:30;;;;;;;15.83;11.60;;;7.30;60.10;;;;;;5016303;28;20268;-79
2022/03/22 02:51:56;;;;;;;14.20;10.93;;;7.30;60.90;;;;;;5026517;28;20183;-80
2022/03/22 02:54:22;;;;;;;15.53;11.13;;;7.20;60.30;;;;;;5013363;28;20179;-80
2022/03/22 02:56:48;;;;;;;14.40;11.40;;;7.20;59.30;;;;;;5020745;28;20187;-79
2022/03/22 02:59:13;;;;;;;17.00;11.53;;;7.20;61.10;;;;;;5018298;28;20184;-80
2022/03/22 03:01:42;;;;;;;17.10;11.30;;;7.20;61.20;;;;;;5016563;28;20203;-80
2022/03/22 03:04:07;;;;;;;15.90;11.67;;;7.20;60.50;;;;;;5019849;28;20181;-80
2022/03/22 03:06:35;;;;;;;18.13;11.20;;;7.10;61.30;;;;;;5020013;28;20168;-80
2022/03/22 03:09:01;;;;;;;16.70;11.13;;;7.10;60.80;;;;;;5012357;28;20170;-80
2022/03/22 03:11:27;;;;;;;16.13;11.40;;;7.00;61.20;;;;;;5019876;28;20258;-81
2022/03/22 03:16:39;;;;;;;15.80;11.37;;;6.80;60.40;;;;;;5029961;28;20279;-80
2022/03/22 03:19:06;;;;;;;14.70;11.37;;;6.80;61.60;;;;;;5020441;28;20230;-79
2022/03/22 03:21:33;;;;;;;15.27;11.73;;;6.90;61.30;;;;;;5011447;28;20205;-80
2022/03/22 03:23:59;;;;;;;15.97;13.07;;;6.90;61.30;;;;;;5011276;28;20264;-80
2022/03/22 03:26:24;;;;;;;16.60;11.67;;;6.90;58.00;;;;;;5011785;28;20174;-80
2022/03/22 03:28:50;;;;;;;17.73;13.27;;;6.70;60.50;;;;;;5007030;28;20242;-81
2022/03/22 03:31:16;;;;;;;15.73;13.13;;;6.60;58.50;;;;;;5018082;28;20182;-80
2022/03/22 03:33:42;;;;;;;16.13;12.03;;;6.50;60.20;;;;;;5019841;28;20183;-78
2022/03/22 03:36:08;;;;;;;16.70;11.83;;;6.50;61.60;;;;;;5018436;28;20195;-80
2022/03/22 03:38:41;;;;;;;15.03;11.77;;;6.60;61.00;;;;;;5016273;28;20238;-80
2022/03/22 03:43:52;;;;;;;15.00;11.60;;;6.60;61.50;;;;;;5018328;28;20768;-82
2022/03/22 03:49:02;;;;;;;14.50;11.53;;;6.50;60.50;;;;;;5013485;28;20238;-81
2022/03/22 03:51:28;;;;;;;16.40;12.13;;;6.50;61.30;;;;;;5007839;28;20179;-79
2022/03/22 03:53:54;;;;;;;15.47;11.90;;;6.50;61.10;;;;;;5018563;28;20201;-79
2022/03/22 03:56:20;;;;;;;17.27;12.00;;;6.40;61.70;;;;;;5030082;28;20182;-82
2022/03/22 03:58:46;;;;;;;16.30;11.90;;;6.30;60.30;;;;;;5014967;28;20281;-80
2022/03/22 04:01:12;;;;;;;18.30;12.23;;;6.30;60.90;;;;;;5004731;28;20229;-81
2022/03/22 04:03:39;;;;;;;14.43;11.77;;;6.20;60.50;;;;;;5004103;28;20183;-81
2022/03/22 04:06:05;;;;;;;16.53;11.73;;;6.10;60.80;;;;;;5003587;28;20175;-79
2022/03/22 04:08:31;;;;;;;17.00;11.90;;;6.10;60.60;;;;;;5003696;28;20175;-81
2022/03/22 04:10:56;;;;;;;14.40;11.30;;;6.10;61.40;;;;;;5003437;28;20226;-82
2022/03/22 04:13:22;;;;;;;14.63;11.13;;;6.10;64.00;;;;;;5006610;28;20175;-81
2022/03/22 04:15:48;;;;;;;15.77;12.00;;;6.10;63.80;;;;;;5004769;28;20608;-81
2022/03/22 04:18:14;;;;;;;14.83;12.00;;;6.10;62.70;;;;;;5003947;28;20326;-83
2022/03/22 04:20:40;;;;;;;16.73;11.43;;;6.10;64.00;;;;;;5004087;28;20198;-80
2022/03/22 04:23:06;;;;;;;16.27;12.30;;;6.10;63.00;;;;;;5007953;28;20189;-81
2022/03/22 04:25:31;;;;;;;19.23;12.03;;;6.10;64.00;;;;;;5011138;28;20176;-80
2022/03/22 04:33:26;;;;;;;17.60;12.73;;;6.10;62.30;;;;;;5022066;28;20170;-80
2022/03/22 04:35:51;;;;;;;17.13;12.97;;;6.00;62.80;;;;;;5006308;28;20265;-82
2022/03/22 04:38:17;;;;;;;16.60;12.00;;;5.90;66.00;;;;;;5003718;28;20177;-82
2022/03/22 04:40:43;;;;;;;16.37;11.93;;;5.90;63.50;;;;;;5005843;28;20200;-80
2022/03/22 04:43:08;;;;;;;17.90;12.13;;;5.80;64.50;;;;;;5004817;28;20178;-82
2022/03/22 04:45:35;;;;;;;15.90;11.87;;;5.80;65.40;;;;;;5003201;28;20178;-81
2022/03/22 04:48:01;;;;;;;15.97;11.77;;;5.90;67.10;;;;;;5003132;28;20550;-80
2022/03/22 04:50:27;;;;;;;20.07;13.10;;;5.90;64.30;;;;;;5004235;28;20198;-81
2022/03/22 04:58:22;;;;;;;19.57;11.50;;;5.80;65.20;;;;;;5016467;28;20224;-80
2022/03/22 05:00:48;;;;;;;15.93;12.03;;;5.60;64.80;;;;;;5008669;28;20202;-81
2022/03/22 05:03:14;;;;;;;16.93;11.97;;;5.60;65.80;;;;;;5014041;28;20175;-80
2022/03/22 05:08:24;;;;;;;18.47;11.83;;;5.40;65.80;;;;;;5012290;28;20432;-81
2022/03/22 05:10:50;;;;;;;17.97;12.27;;;5.30;66.50;;;;;;5002955;28;20274;-81
2022/03/22 05:13:16;;;;;;;19.23;12.73;;;5.30;66.60;;;;;;5001802;28;20181;-81
2022/03/22 05:15:42;;;;;;;17.10;11.97;;;5.30;67.50;;;;;;5001896;28;20190;-80
2022/03/22 05:18:08;;;;;;;16.83;11.87;;;5.40;66.50;;;;;;5004916;28;20209;-80
2022/03/22 05:20:33;;;;;;;16.93;12.03;;;5.40;66.10;;;;;;5002089;28;20195;-84
2022/03/22 05:22:59;;;;;;;16.17;12.33;;;5.20;66.30;;;;;;5001391;28;20185;-80
2022/03/22 05:25:30;;;;;;;21.17;12.73;;;5.20;66.40;;;;;;5002989;28;20174;-84
2022/03/22 05:27:56;;;;;;;19.13;12.10;;;5.20;66.20;;;;;;5001779;28;20257;-80
2022/03/22 05:30:22;;;;;;;16.47;12.17;;;5.20;67.40;;;;;;4999450;28;20225;-80
2022/03/22 05:32:48;;;;;;;17.43;12.63;;;5.50;68.30;;;;;;5000971;28;20190;-81
2022/03/22 05:35:13;;;;;;;19.50;12.80;;;5.60;66.60;;;;;;5000955;28;20170;-80
2022/03/22 05:37:39;;;;;;;17.40;11.93;;;5.60;66.70;;;;;;4998818;28;20189;-82
2022/03/22 05:40:05;;;;;;;17.20;12.77;;;5.80;69.00;;;;;;5002001;28;20212;-81
2022/03/22 05:42:36;;;;;;;19.93;12.57;;;5.80;66.90;;;;;;5002587;28;20198;-80
2022/03/22 05:45:03;;;;;;;18.73;13.20;;;5.70;67.00;;;;;;4994089;28;20217;-82
2022/03/22 05:47:28;;;;;;;20.10;12.93;;;5.60;65.90;;;;;;5002496;28;20174;-82
2022/03/22 05:49:55;;;;;;;23.27;13.53;;;5.50;66.30;;;;;;4999220;28;20198;-80
2022/03/22 05:52:21;;;;;;;22.30;13.17;;;5.40;66.30;;;;;;4999847;28;20178;-80
2022/03/22 05:54:49;;;;;;;21.40;12.67;;;5.40;65.60;;;;;;5003607;28;20549;-82
2022/03/22 05:57:15;;;;;;;19.03;13.30;;;5.30;66.00;;;;;;5002046;28;20187;-81
2022/03/22 05:59:41;;;;;;;17.43;12.80;;;5.30;66.30;;;;;;5003078;28;20202;-82
2022/03/22 06:02:07;;;;;;;19.13;13.03;;;5.40;68.40;;;;;;5001472;28;20657;-81
2022/03/22 06:04:33;;;;;;;19.83;12.60;;;5.70;69.40;;;;;;5004487;28;20170;-80
2022/03/22 06:07:00;;;;;;;17.50;11.87;;;5.80;66.50;;;;;;4997185;28;20175;-84
2022/03/22 06:09:26;;;;;;;18.20;12.63;;;6.00;67.10;;;;;;5016968;28;20198;-81
2022/03/22 06:11:52;;;;;;;18.37;13.00;;;6.00;66.00;;;;;;5010675;28;20174;-80
2022/03/22 06:14:17;;;;;;;18.03;12.27;;;6.10;65.80;;;;;;5006670;28;20186;-82
2022/03/22 06:16:43;;;;;;;20.10;12.40;;;6.00;65.50;;;;;;5004731;28;20179;-81
2022/03/22 06:19:09;;;;;;;17.43;13.20;;;6.10;65.50;;;;;;5004279;28;20189;-83
2022/03/22 06:21:34;;;;;;;21.03;12.83;;;6.10;64.90;;;;;;5003966;28;20214;-81
2022/03/22 06:24:01;;;;;;;20.23;13.33;;;6.00;67.30;;;;;;5003679;28;20175;-80
2022/03/22 06:26:26;;;;;;;19.20;12.40;;;6.00;65.40;;;;;;5003901;28;20181;-80
2022/03/22 06:28:52;;;;;;;19.60;12.60;;;6.00;64.90;;;;;;5003786;28;20332;-80
2022/03/22 06:31:18;;;;;;;16.07;12.17;;;6.00;66.60;;;;;;5002777;28;20190;-81
2022/03/22 06:33:44;;;;;;;17.47;12.57;;;6.10;65.50;;;;;;5003269;28;20222;-81
2022/03/22 06:36:09;;;;;;;18.60;12.70;;;6.10;65.20;;;;;;5002842;28;20183;-82
2022/03/22 06:38:39;;;;;;;20.10;12.30;;;6.40;67.30;;;;;;5004447;28;20290;-81
2022/03/22 06:41:04;;;;;;;20.07;13.80;;;6.30;65.80;;;;;;5010447;28;20213;-80
2022/03/22 06:43:30;;;;;;;17.03;12.63;;;6.40;64.50;;;;;;5009313;28;20175;-82
2022/03/22 06:45:56;;;;;;;19.43;13.80;;;6.40;66.80;;;;;;5003744;28;20167;-80
2022/03/22 06:48:22;;;;;;;22.13;12.77;;;6.50;65.50;;;;;;5002852;28;20183;-83
2022/03/22 06:50:49;;;;;;;20.40;13.67;;;6.60;66.30;;;;;;5002489;28;20337;-83
2022/03/22 06:53:16;;;;;;;21.53;13.97;;;6.60;62.60;;;;;;5002691;28;20214;-81
2022/03/22 06:55:42;;;;;;;20.27;13.87;;;6.50;62.50;;;;;;5002628;28;20233;-80
2022/03/22 06:58:09;;;;;;;23.43;14.67;;;6.40;62.40;;;;;;5002265;28;20172;-80
2022/03/22 07:00:35;;;;;;;19.20;13.70;;;6.50;62.30;;;;;;5002672;28;20274;-82
2022/03/22 07:03:03;;;;;;;19.83;13.30;;;6.50;62.60;;;;;;5002675;28;20189;-81
2022/03/22 07:05:29;;;;;;;19.07;14.77;;;6.70;62.50;;;;;;5002909;28;20240;-81
2022/03/22 07:07:56;;;;;;;19.53;13.97;;;6.80;62.00;;;;;;5002853;28;20193;-81
2022/03/22 07:10:22;;;;;;;19.17;13.13;;;6.90;62.30;;;;;;4999847;28;20235;-82
2022/03/22 07:12:52;;;;;;;20.73;13.97;;;7.00;62.30;;;;;;5001116;28;20201;-82
2022/03/22 07:15:26;;;;;;;22.87;14.20;;;7.00;62.10;;;;;;5000810;28;20209;-81
2022/03/22 07:17:52;;;;;;;23.50;14.43;;;6.90;62.60;;;;;;5006506;28;20167;-80
2022/03/22 07:20:19;;;;;;;26.27;13.87;;;6.90;63.90;;;;;;5003101;28;20227;-82
2022/03/22 07:22:46;;;;;;;29.57;15.43;;;6.90;64.20;;;;;;5003148;28;20674;-81
2022/03/22 07:25:12;;;;;;;21.23;14.57;;;6.90;64.30;;;;;;5000920;28;20183;-81
2022/03/22 07:27:38;;;;;;;23.53;14.63;;;7.10;63.50;;;;;;5001425;28;20567;-84
2022/03/22 07:30:04;;;;;;;21.47;14.93;;;7.10;62.50;;;;;;5003567;28;20299;-83
2022/03/22 07:32:30;;;;;;;25.50;14.60;;;7.20;63.10;;;;;;4999264;28;20213;-79
2022/03/22 07:35:00;;;;;;;25.87;14.03;;;7.30;61.40;;;;;;4999513;28;20187;-80
2022/03/22 07:37:28;;;;;;;18.80;13.17;;;7.30;60.70;;;;;;4998685;28;20593;-80
2022/03/22 07:39:58;;;;;;;20.20;13.90;;;7.20;60.60;;;;;;4999917;28;20199;-80
2022/03/22 07:42:27;;;;;;;25.20;13.80;;;7.20;60.40;;;;;;5001763;28;20256;-81
2022/03/22 07:44:57;;;;;;;25.80;14.53;;;7.30;59.50;;;;;;4999276;28;20182;-81
2022/03/22 07:47:24;;;;;;;22.30;14.00;;;7.30;59.80;;;;;;4997402;28;20236;-81
2022/03/22 07:55:19;;;;;;;25.57;14.63;;;7.60;61.20;;;;;;4998787;28;20186;-83
2022/03/22 07:57:45;;;;;;;24.20;14.50;;;7.80;62.40;;;;;;5001728;28;20196;-82
2022/03/22 08:00:12;;;;;;;23.17;14.67;;;7.90;63.00;;;;;;5001197;28;20197;-82
2022/03/22 08:02:37;;;;;;;27.40;16.38;;;8.00;61.10;;;;;;4999583;28;20435;-82
2022/03/22 08:05:05;;;;;;;24.57;14.60;;;8.10;61.00;;;;;;5000332;28;20273;-80
2022/03/22 08:07:31;;;;;;;26.00;14.23;;;8.20;61.30;;;;;;4998163;28;20219;-80
2022/03/22 08:09:56;;;;;;;23.37;15.60;;;8.20;61.90;;;;;;5005649;28;20221;-82
2022/03/22 08:12:22;;;;;;;32.20;16.30;;;8.30;60.50;;;;;;5004142;28;20553;-81
2022/03/22 08:14:48;;;;;;;29.53;15.40;;;8.30;59.10;;;;;;5005461;28;20656;-80
2022/03/22 08:17:13;;;;;;;27.53;14.70;;;8.20;59.60;;;;;;5006708;28;20236;-82
2022/03/22 08:19:39;;;;;;;20.50;15.23;;;8.30;58.80;;;;;;5008205;28;20206;-81
2022/03/22 08:22:05;;;;;;;25.97;15.20;;;8.20;62.30;;;;;;5010427;28;20279;-80
2022/03/22 08:24:31;;;;;;;22.70;13.87;;;8.40;61.50;;;;;;5008210;28;20662;-80
2022/03/22 08:26:57;;;;;;;25.40;15.03;;;8.80;60.80;;;;;;5007261;28;20174;-80
2022/03/22 08:29:25;;;;;;;23.33;14.47;;;8.90;59.60;;;;;;5010947;28;20190;-87
2022/03/22 08:31:52;;;;;;;28.33;15.27;;;8.90;61.00;;;;;;5009617;28;20210;-83
2022/03/22 08:34:19;;;;;;;24.20;14.67;;;9.00;58.00;;;;;;5014701;28;20209;-82
2022/03/22 08:36:45;;;;;;;22.37;14.20;;;8.90;56.70;;;;;;5017067;28;20158;-85
2022/03/22 08:39:13;;;;;;;27.80;15.40;;;9.00;58.50;;;;;;5019167;28;20177;-84
2022/03/22 08:41:39;;;;;;;29.10;15.70;;;9.20;57.90;;;;;;5016181;28;20277;-79
2022/03/22 08:44:05;;;;;;;30.60;16.57;;;9.20;57.30;;;;;;5010795;28;20174;-83
2022/03/22 08:46:31;;;;;;;27.63;15.77;;;9.20;57.30;;;;;;5006695;28;20170;-80
2022/03/22 08:48:56;;;;;;;27.87;15.57;;;9.20;56.90;;;;;;5008632;28;20189;-81
2022/03/22 08:51:24;;;;;;;21.00;15.70;;;9.20;57.10;;;;;;5006319;28;20182;-80
2022/03/22 08:53:51;;;;;;;27.37;16.03;;;9.20;57.00;;;;;;5002179;28;20188;-80
2022/03/22 08:56:18;;;;;;;28.17;16.63;;;9.40;58.10;;;;;;5003687;28;20181;-80
2022/03/22 08:58:44;;;;;;;25.93;15.83;;;9.40;56.60;;;;;;5003155;28;20182;-80
2022/03/22 09:01:11;;;;;;;25.10;16.63;;;9.50;58.20;;;;;;5002217;28;20209;-80
2022/03/22 09:03:38;;;;;;;24.43;16.93;;;9.70;56.30;;;;;;5001202;28;20181;-79
2022/03/22 09:06:16;;;;;;;25.50;17.47;;;9.60;56.70;;;;;;5001749;28;20186;-81
2022/03/22 09:08:42;;;;;;;30.87;16.73;;;9.70;56.10;;;;;;5000952;28;20185;-80
2022/03/22 09:11:09;;;;;;;25.97;15.97;;;9.80;56.10;;;;;;5020176;28;20210;-81
2022/03/22 09:13:37;;;;;;;29.80;15.43;;;9.80;58.20;;;;;;5020268;28;20633;-79
2022/03/22 09:16:05;;;;;;;31.03;15.80;;;9.90;55.80;;;;;;5021097;28;20186;-80
2022/03/22 09:18:31;;;;;;;28.33;16.27;;;10.00;56.20;;;;;;5019906;28;20246;-78
2022/03/22 09:20:56;;;;;;;30.30;15.60;;;10.10;55.90;;;;;;5020408;28;20202;-80
2022/03/22 09:23:22;;;;;;;23.33;15.50;;;10.30;56.10;;;;;;5022085;28;20170;-81
2022/03/22 09:25:50;;;;;;;30.47;16.57;;;10.50;55.60;;;;;;5022513;28;20178;-79
2022/03/22 09:28:16;;;;;;;27.43;15.80;;;10.60;54.90;;;;;;5020481;28;20186;-80
2022/03/22 09:30:41;;;;;;;19.83;14.70;;;10.60;55.10;;;;;;5021815;28;20249;-80
2022/03/22 09:33:11;;;;;;;25.63;16.20;;;10.70;53.50;;;;;;5021340;28;20188;-79
2022/03/22 09:35:39;;;;;;;28.13;16.70;;;10.70;53.50;;;;;;5023391;28;20179;-82
2022/03/22 09:38:06;;;;;;;19.67;15.27;;;10.90;53.80;;;;;;5021401;28;20267;-80
2022/03/22 09:40:32;;;;;;;22.57;15.30;;;11.00;53.30;;;;;;5022817;28;20199;-79
2022/03/22 09:42:59;;;;;;;19.77;15.83;;;11.10;52.40;;;;;;5024786;28;20220;-79
2022/03/22 09:45:30;;;;;;;22.20;15.30;;;11.30;53.40;;;;;;5032662;28;20180;-81
2022/03/22 09:47:59;;;;;;;24.43;15.80;;;11.40;53.90;;;;;;5032821;28;20227;-80
2022/03/22 09:53:12;;;;;;;17.23;14.87;;;11.90;51.20;;;;;;5048859;28;20208;-79
2022/03/22 09:55:38;;;;;;;23.53;14.73;;;12.10;52.50;;;;;;5032502;28;20219;-80
2022/03/22 09:58:04;;;;;;;25.63;16.00;;;12.20;51.40;;;;;;5034000;28;20181;-80
2022/03/22 10:00:32;;;;;;;20.87;15.60;;;12.40;51.40;;;;;;5035642;28;20207;-82
2022/03/22 10:02:59;;;;;;;22.57;15.50;;;12.60;51.30;;;;;;5035688;28;20700;-80
2022/03/22 10:05:29;;;;;;;21.60;14.63;;;12.90;50.10;;;;;;5031391;28;20197;-80
2022/03/22 10:08:00;;;;;;;24.27;15.87;;;13.20;50.40;;;;;;5028630;28;20177;-81
2022/03/22 10:10:28;;;;;;;26.63;16.10;;;13.50;50.80;;;;;;5028104;28;20714;-79
2022/03/22 10:13:04;;;;;;;22.20;16.03;;;13.70;48.60;;;;;;5028552;28;20182;-79
2022/03/22 10:15:33;;;;;;;22.73;16.20;;;13.90;48.60;;;;;;5025343;28;20172;-80
2022/03/22 10:18:10;;;;;;;22.70;16.07;;;14.20;49.10;;;;;;5026574;28;20173;-80
2022/03/22 10:20:38;;;;;;;21.97;16.90;;;14.60;48.50;;;;;;5027029;28;20299;-82
2022/03/22 10:23:06;;;;;;;28.77;16.30;;;14.90;47.10;;;;;;5027657;28;20220;-82
2022/03/22 10:25:41;;;;;;;23.37;16.77;;;15.10;46.90;;;;;;5027885;28;20180;-80
2022/03/22 10:28:09;;;;;;;26.23;17.50;;;15.30;46.90;;;;;;5032044;28;20185;-83
2022/03/22 10:30:35;;;;;;;22.97;17.10;;;15.60;45.60;;;;;;5030492;28;20198;-80
2022/03/22 10:33:01;;;;;;;23.93;17.30;;;15.90;46.30;;;;;;5032817;28;20173;-81
2022/03/22 10:35:35;;;;;;;24.00;16.87;;;16.10;45.40;;;;;;5033190;28;20189;-80
2022/03/22 10:38:03;;;;;;;27.43;16.90;;;16.10;44.30;;;;;;5035595;28;20181;-82
2022/03/22 10:40:40;;;;;;;23.90;16.60;;;16.30;43.80;;;;;;5034490;28;20243;-82
2022/03/22 10:43:25;;;;;;;27.93;17.83;;;16.60;43.00;;;;;;5030251;28;20209;-80
2022/03/22 10:46:20;;;;;;;25.17;17.77;;;16.70;44.60;;;;;;5032333;28;20177;-81
2022/03/22 10:49:08;;;;;;;27.27;17.40;;;16.80;42.20;;;;;;5034604;28;20173;-80
2022/03/22 10:51:39;;;;;;;25.20;18.03;;;17.10;42.30;;;;;;5036054;28;20185;-83
2022/03/22 10:54:09;;;;;;;27.90;18.17;;;17.50;42.40;;;;;;5032645;28;20599;-80
2022/03/22 10:56:35;;;;;;;28.70;19.30;;;17.90;41.40;;;;;;5032563;28;20174;-80
2022/03/22 10:59:07;;;;;;;31.07;19.60;;;18.50;41.10;;;;;;5010301;28;20249;-80
2022/03/22 11:01:33;;;;;;;21.93;17.47;;;19.50;40.00;;;;;;5010913;28;20240;-82
2022/03/22 11:04:06;;;;;;;23.60;17.30;;;20.50;37.40;;;;;;5012633;28;20181;-80
2022/03/22 11:06:32;;;;;;;24.23;17.63;;;21.50;36.80;;;;;;5012088;28;20185;-83
2022/03/22 11:09:00;;;;;;;22.43;17.17;;;22.70;35.30;;;;;;5017700;28;20220;-85
2022/03/22 11:11:30;;;;;;;21.17;17.17;;;23.70;36.10;;;;;;5016237;28;20193;-81
2022/03/22 11:13:57;;;;;;;26.43;17.20;;;23.70;33.90;;;;;;5013307;28;20186;-79
2022/03/22 11:16:26;;;;;;;27.57;17.47;;;23.90;33.00;;;;;;5013635;28;20189;-79
2022/03/22 11:18:52;;;;;;;22.90;16.57;;;23.80;32.70;;;;;;5014690;28;20178;-83
2022/03/22 11:21:19;;;;;;;21.40;15.97;;;23.70;32.80;;;;;;5036026;23;20227;-77
2022/03/22 11:23:47;;;;;;;20.33;16.00;;;22.50;32.70;;;;;;4965785;28;20176;-76
2022/03/22 11:26:18;;;;;;;24.10;16.57;;;22.60;34.40;;;;;;4965040;28;20180;-76
2022/03/22 11:28:46;;;;;;;22.17;16.73;;;23.30;33.00;;;;;;4947594;28;20639;-77
2022/03/22 11:31:14;;;;;;;24.77;17.87;;;22.90;32.60;;;;;;4939775;29;20212;-76
2022/03/22 11:36:28;;;;;;;20.30;15.60;;;22.20;33.90;;;;;;4955990;29;20176;-76
2022/03/22 11:38:55;;;;;;;22.83;15.77;;;21.90;33.50;;;;;;4956021;28;20193;-76
2022/03/22 11:44:34;;;;;;;20.17;16.33;;;21.60;32.40;;;;;;4959688;28;20558;-77
2022/03/22 11:47:17;;;;;;;21.03;16.20;;;21.00;33.10;;;;;;4938300;29;20222;-78
2022/03/22 11:50:04;;;;;;;20.20;15.63;;;20.30;33.90;;;;;;4922560;29;20177;-77
2022/03/22 11:52:33;;;;;;;20.43;16.13;;;20.60;34.70;;;;;;4937543;29;20197;-76
2022/03/22 11:55:21;;;;;;;22.97;16.90;;;20.90;34.80;;;;;;4922480;29;20176;-76
2022/03/22 11:57:53;;;;;;;21.80;16.57;;;21.10;33.40;;;;;;4939115;29;20196;-76
2022/03/22 12:00:21;;;;;;;24.27;15.60;;;21.40;33.70;;;;;;4922143;29;20195;-80
2022/03/22 12:02:56;;;;;;;18.93;16.03;;;20.90;33.30;;;;;;4926419;29;20548;-80
2022/03/22 12:05:23;;;;;;;18.33;15.97;;;20.30;34.80;;;;;;4921416;29;20192;-75
2022/03/22 12:07:51;;;;;;;20.90;15.57;;;20.20;35.30;;;;;;4921304;29;20268;-76
2022/03/22 12:10:20;;;;;;;20.70;15.70;;;20.10;33.30;;;;;;4921398;29;20180;-76
2022/03/22 12:12:50;;;;;;;21.37;15.50;;;20.90;33.60;;;;;;4921360;29;20254;-80
2022/03/22 12:15:20;;;;;;;21.08;15.18;;;23.50;32.40;;;;;;4922168;29;20256;-75
2022/03/22 12:17:46;;;;;;;20.85;15.55;;;24.70;30.50;;;;;;4937060;29;20185;-77
2022/03/22 12:20:18;;;;;;;17.50;15.00;;;24.80;29.90;;;;;;4938567;29;20200;-79
2022/03/22 12:22:57;;;;;;;18.75;15.18;;;24.60;30.00;;;;;;4936455;29;20216;-76
2022/03/22 12:25:26;;;;;;;20.55;15.68;;;23.50;30.20;;;;;;4925358;29;20177;-78
2022/03/22 12:27:53;;;;;;;21.10;15.70;;;22.10;30.90;;;;;;4932819;28;20313;-76
2022/03/22 12:30:20;;;;;;;19.47;15.03;;;21.00;31.80;;;;;;4910333;29;20273;-75
2022/03/22 12:32:55;;;;;;;20.43;15.87;;;20.00;33.10;;;;;;4921410;29;20236;-76
2022/03/22 12:35:22;;;;;;;20.80;15.80;;;19.60;35.10;;;;;;4904650;29;20183;-76
2022/03/22 12:37:51;;;;;;;20.33;16.40;;;19.00;35.60;;;;;;4904261;29;20235;-74
2022/03/22 12:40:17;;;;;;;23.40;16.63;;;18.60;35.30;;;;;;4917908;29;20494;-74
2022/03/22 12:42:45;;;;;;;23.10;16.13;;;18.20;35.80;;;;;;4918019;29;20248;-74
2022/03/22 12:45:13;;;;;;;17.27;15.03;;;18.10;36.50;;;;;;4918068;29;20232;-75
2022/03/22 12:47:40;;;;;;;17.40;15.27;;;18.20;37.00;;;;;;4917506;29;20208;-77
2022/03/22 12:50:08;;;;;;;18.53;14.73;;;18.20;36.50;;;;;;4902779;29;20214;-75
2022/03/22 12:52:34;;;;;;;19.17;14.30;;;18.10;35.90;;;;;;4902170;29;20209;-76
2022/03/22 12:55:02;;;;;;;17.83;13.43;;;18.00;35.70;;;;;;4902401;29;20546;-78
2022/03/22 12:57:29;;;;;;;19.40;13.93;;;18.10;34.80;;;;;;4902020;29;20240;-76
2022/03/22 12:59:56;;;;;;;17.10;13.87;;;18.00;34.30;;;;;;4901823;29;20181;-78
2022/03/22 13:02:24;;;;;;;18.77;13.13;;;17.90;35.00;;;;;;4903441;29;20213;-79
2022/03/22 13:04:53;;;;;;;19.53;13.10;;;18.00;33.90;;;;;;4902586;29;20178;-77
2022/03/22 13:07:20;;;;;;;15.50;11.80;;;17.90;32.30;;;;;;4901950;29;20174;-76
2022/03/22 13:12:53;;;;;;;14.07;10.30;;;17.80;31.30;;;;;;4918391;28;20205;-76
2022/03/22 13:15:21;;;;;;;14.03;9.97;;;17.90;30.80;;;;;;4933133;29;20181;-78
2022/03/22 13:17:50;;;;;;;15.70;10.63;;;18.00;30.50;;;;;;4917159;29;20257;-77
2022/03/22 13:20:21;;;;;;;16.70;10.53;;;18.00;30.70;;;;;;4933449;29;20196;-77